KICL/ICL METAR and TAF weather

Enter ICAO airport designator
Station Type Date Time Source
KICL METAR 2020/01/18 15:55 UTC NOAA

KICL 181555Z AUTO 33019G27KT 10SM FEW020 OVC028 M10/M14 A3023 RMK AO2


Station Type Date Time Source
KICL Decoded METAR 2020/01/18 15:55 UTC NOAA

Clarinda, IA, United States (KICL) 40-43N 095-02W
Jan 18, 2020 - 10:55 AM EST / 2020.01.18 1555 UTC
Wind: from the NNW (330 degrees) at 22 MPH (19 KT) gusting to 31 MPH (27 KT):0
Visibility: 10 mile(s):0
Sky conditions: overcast
Temperature: 14 F (-10 C)
Windchill: -4 F (-20 C):1
Dew Point: 6 F (-14 C)
Relative Humidity: 72%
Pressure (altimeter): 30.23 in. Hg (1023 hPa)
ob: KICL 181555Z AUTO 33019G27KT 10SM FEW020 OVC028 M10/M14 A3023 RMK AO2
cycle: 16

Station Type Date Time Source
KICL TAF UTC NOAA

Error!

Example: see airport list